sensor_id;sensor_type;location;lat;lon;timestamp;P1;durP1;ratioP1;P2;durP2;ratioP2
29344;SDS011;16339;48.748;2.222;2022-09-09T00:01:16;14.88;;;2.35;;
29344;SDS011;16339;48.748;2.222;2022-09-09T00:03:54;14.85;;;2.38;;
29344;SDS011;16339;48.748;2.222;2022-09-09T00:06:28;16.38;;;2.35;;
29344;SDS011;16339;48.748;2.222;2022-09-09T00:09:04;12.45;;;1.98;;
29344;SDS011;16339;48.748;2.222;2022-09-09T00:11:40;16.20;;;2.30;;
29344;SDS011;16339;48.748;2.222;2022-09-09T00:14:16;11.35;;;1.90;;
29344;SDS011;16339;48.748;2.222;2022-09-09T00:16:52;12.43;;;1.73;;
29344;SDS011;16339;48.748;2.222;2022-09-09T00:19:24;15.38;;;2.30;;
29344;SDS011;16339;48.748;2.222;2022-09-09T00:22:03;13.43;;;1.90;;
29344;SDS011;16339;48.748;2.222;2022-09-09T00:24:46;17.35;;;2.28;;
29344;SDS011;16339;48.748;2.222;2022-09-09T00:27:21;11.57;;;1.70;;
29344;SDS011;16339;48.748;2.222;2022-09-09T00:29:54;9.35;;;1.67;;
29344;SDS011;16339;48.748;2.222;2022-09-09T00:32:27;15.27;;;2.17;;
29344;SDS011;16339;48.748;2.222;2022-09-09T00:34:59;16.77;;;2.40;;
29344;SDS011;16339;48.748;2.222;2022-09-09T00:37:31;15.20;;;2.53;;
29344;SDS011;16339;48.748;2.222;2022-09-09T00:40:05;16.13;;;1.88;;
29344;SDS011;16339;48.748;2.222;2022-09-09T00:42:46;17.83;;;2.15;;
29344;SDS011;16339;48.748;2.222;2022-09-09T00:45:33;15.25;;;2.03;;
29344;SDS011;16339;48.748;2.222;2022-09-09T00:48:14;14.95;;;2.47;;
29344;SDS011;16339;48.748;2.222;2022-09-09T00:50:45;16.23;;;1.95;;
29344;SDS011;16339;48.748;2.222;2022-09-09T00:53:24;25.42;;;2.47;;
29344;SDS011;16339;48.748;2.222;2022-09-09T00:56:09;22.92;;;2.45;;
29344;SDS011;16339;48.748;2.222;2022-09-09T00:58:42;17.15;;;2.50;;
29344;SDS011;16339;48.748;2.222;2022-09-09T01:01:15;21.95;;;2.78;;
29344;SDS011;16339;48.748;2.222;2022-09-09T01:03:45;16.50;;;2.20;;
29344;SDS011;16339;48.748;2.222;2022-09-09T01:06:20;9.88;;;2.17;;
29344;SDS011;16339;48.748;2.222;2022-09-09T01:09:00;15.55;;;2.13;;
29344;SDS011;16339;48.748;2.222;2022-09-09T01:11:47;12.68;;;1.83;;
29344;SDS011;16339;48.748;2.222;2022-09-09T01:14:37;16.58;;;2.22;;
29344;SDS011;16339;48.748;2.222;2022-09-09T01:17:11;10.93;;;2.45;;
29344;SDS011;16339;48.748;2.222;2022-09-09T01:19:54;13.15;;;2.20;;
29344;SDS011;16339;48.748;2.222;2022-09-09T01:22:32;20.65;;;2.55;;
29344;SDS011;16339;48.748;2.222;2022-09-09T01:25:15;16.20;;;2.40;;
29344;SDS011;16339;48.748;2.222;2022-09-09T01:27:54;14.73;;;2.15;;
29344;SDS011;16339;48.748;2.222;2022-09-09T01:30:34;16.08;;;2.42;;
29344;SDS011;16339;48.748;2.222;2022-09-09T01:33:04;14.95;;;2.30;;
29344;SDS011;16339;48.748;2.222;2022-09-09T01:35:37;15.07;;;2.40;;
29344;SDS011;16339;48.748;2.222;2022-09-09T01:38:08;22.52;;;2.50;;
29344;SDS011;16339;48.748;2.222;2022-09-09T01:40:37;20.17;;;2.67;;
29344;SDS011;16339;48.748;2.222;2022-09-09T01:43:09;13.18;;;2.05;;
29344;SDS011;16339;48.748;2.222;2022-09-09T01:45:38;19.00;;;2.35;;
29344;SDS011;16339;48.748;2.222;2022-09-09T01:48:09;11.68;;;2.13;;
29344;SDS011;16339;48.748;2.222;2022-09-09T01:50:37;10.90;;;2.00;;
29344;SDS011;16339;48.748;2.222;2022-09-09T01:53:06;21.73;;;2.90;;
29344;SDS011;16339;48.748;2.222;2022-09-09T01:58:51;17.57;;;2.30;;
29344;SDS011;16339;48.748;2.222;2022-09-09T02:01:28;20.93;;;2.47;;
29344;SDS011;16339;48.748;2.222;2022-09-09T02:04:10;17.77;;;2.25;;
29344;SDS011;16339;48.748;2.222;2022-09-09T02:06:44;25.23;;;3.05;;
29344;SDS011;16339;48.748;2.222;2022-09-09T02:09:16;14.23;;;2.13;;
29344;SDS011;16339;48.748;2.222;2022-09-09T02:11:47;17.85;;;2.40;;
29344;SDS011;16339;48.748;2.222;2022-09-09T02:14:22;12.45;;;2.20;;
29344;SDS011;16339;48.748;2.222;2022-09-09T02:16:56;17.67;;;2.05;;
29344;SDS011;16339;48.748;2.222;2022-09-09T02:19:30;12.82;;;3.10;;
29344;SDS011;16339;48.748;2.222;2022-09-09T02:22:02;18.73;;;2.58;;
29344;SDS011;16339;48.748;2.222;2022-09-09T02:24:33;18.20;;;2.88;;
29344;SDS011;16339;48.748;2.222;2022-09-09T02:27:05;15.68;;;2.53;;
29344;SDS011;16339;48.748;2.222;2022-09-09T02:29:40;24.25;;;3.15;;
29344;SDS011;16339;48.748;2.222;2022-09-09T02:32:15;16.70;;;2.50;;
29344;SDS011;16339;48.748;2.222;2022-09-09T02:34:47;21.20;;;2.28;;
29344;SDS011;16339;48.748;2.222;2022-09-09T02:37:19;17.75;;;2.42;;
29344;SDS011;16339;48.748;2.222;2022-09-09T02:39:53;21.20;;;2.72;;
29344;SDS011;16339;48.748;2.222;2022-09-09T02:42:22;20.50;;;3.00;;
29344;SDS011;16339;48.748;2.222;2022-09-09T02:44:53;24.98;;;2.60;;
29344;SDS011;16339;48.748;2.222;2022-09-09T02:47:26;16.67;;;2.28;;
29344;SDS011;16339;48.748;2.222;2022-09-09T02:50:02;14.05;;;2.72;;
29344;SDS011;16339;48.748;2.222;2022-09-09T02:52:42;17.58;;;2.40;;
29344;SDS011;16339;48.748;2.222;2022-09-09T02:55:24;17.95;;;2.60;;
29344;SDS011;16339;48.748;2.222;2022-09-09T02:58:01;12.38;;;2.22;;
29344;SDS011;16339;48.748;2.222;2022-09-09T03:00:35;14.20;;;2.53;;
29344;SDS011;16339;48.748;2.222;2022-09-09T03:03:04;24.10;;;2.60;;
29344;SDS011;16339;48.748;2.222;2022-09-09T03:05:34;12.18;;;2.80;;
29344;SDS011;16339;48.748;2.222;2022-09-09T03:08:03;15.88;;;2.50;;
29344;SDS011;16339;48.748;2.222;2022-09-09T03:10:33;19.20;;;2.70;;
29344;SDS011;16339;48.748;2.222;2022-09-09T03:13:02;17.58;;;2.78;;
29344;SDS011;16339;48.748;2.222;2022-09-09T03:15:31;14.68;;;2.33;;
29344;SDS011;16339;48.748;2.222;2022-09-09T03:18:03;19.48;;;2.47;;
29344;SDS011;16339;48.748;2.222;2022-09-09T03:20:32;22.88;;;2.97;;
29344;SDS011;16339;48.748;2.222;2022-09-09T03:23:01;11.02;;;2.38;;
29344;SDS011;16339;48.748;2.222;2022-09-09T03:25:30;12.27;;;2.20;;
29344;SDS011;16339;48.748;2.222;2022-09-09T03:27:59;12.80;;;2.38;;
29344;SDS011;16339;48.748;2.222;2022-09-09T03:30:28;17.00;;;2.92;;
29344;SDS011;16339;48.748;2.222;2022-09-09T03:32:59;13.75;;;2.28;;
29344;SDS011;16339;48.748;2.222;2022-09-09T03:35:28;15.05;;;2.90;;
29344;SDS011;16339;48.748;2.222;2022-09-09T03:37:57;18.08;;;2.67;;
29344;SDS011;16339;48.748;2.222;2022-09-09T03:40:26;14.25;;;2.67;;
29344;SDS011;16339;48.748;2.222;2022-09-09T03:42:56;13.52;;;2.63;;
29344;SDS011;16339;48.748;2.222;2022-09-09T03:45:24;17.55;;;2.95;;
29344;SDS011;16339;48.748;2.222;2022-09-09T03:47:53;27.23;;;3.97;;
29344;SDS011;16339;48.748;2.222;2022-09-09T03:50:25;21.65;;;3.17;;
29344;SDS011;16339;48.748;2.222;2022-09-09T03:55:23;17.85;;;2.58;;
29344;SDS011;16339;48.748;2.222;2022-09-09T03:57:52;16.35;;;2.75;;
29344;SDS011;16339;48.748;2.222;2022-09-09T04:00:20;21.98;;;3.28;;
29344;SDS011;16339;48.748;2.222;2022-09-09T04:02:49;17.27;;;3.05;;
29344;SDS011;16339;48.748;2.222;2022-09-09T04:05:19;22.05;;;2.55;;
29344;SDS011;16339;48.748;2.222;2022-09-09T04:07:50;12.63;;;2.33;;
29344;SDS011;16339;48.748;2.222;2022-09-09T04:12:48;19.85;;;2.72;;
29344;SDS011;16339;48.748;2.222;2022-09-09T04:15:17;21.50;;;3.13;;
29344;SDS011;16339;48.748;2.222;2022-09-09T04:17:46;20.73;;;3.10;;
29344;SDS011;16339;48.748;2.222;2022-09-09T04:20:15;21.85;;;3.53;;
29344;SDS011;16339;48.748;2.222;2022-09-09T04:22:44;18.33;;;2.75;;
29344;SDS011;16339;48.748;2.222;2022-09-09T04:25:16;19.38;;;3.70;;
29344;SDS011;16339;48.748;2.222;2022-09-09T04:27:45;24.50;;;2.90;;
29344;SDS011;16339;48.748;2.222;2022-09-09T04:30:17;27.55;;;3.10;;
29344;SDS011;16339;48.748;2.222;2022-09-09T04:32:46;17.23;;;2.80;;
29344;SDS011;16339;48.748;2.222;2022-09-09T04:35:14;26.58;;;3.40;;
29344;SDS011;16339;48.748;2.222;2022-09-09T04:37:45;18.48;;;3.15;;
29344;SDS011;16339;48.748;2.222;2022-09-09T04:40:16;23.88;;;2.72;;
29344;SDS011;16339;48.748;2.222;2022-09-09T04:42:47;17.90;;;2.90;;
29344;SDS011;16339;48.748;2.222;2022-09-09T04:45:16;17.02;;;3.13;;
29344;SDS011;16339;48.748;2.222;2022-09-09T04:47:45;20.38;;;3.20;;
29344;SDS011;16339;48.748;2.222;2022-09-09T04:50:14;14.95;;;2.95;;
29344;SDS011;16339;48.748;2.222;2022-09-09T04:52:43;16.38;;;2.72;;
29344;SDS011;16339;48.748;2.222;2022-09-09T04:55:12;19.13;;;2.90;;
29344;SDS011;16339;48.748;2.222;2022-09-09T04:57:43;21.50;;;2.85;;
29344;SDS011;16339;48.748;2.222;2022-09-09T05:00:12;18.13;;;2.78;;
29344;SDS011;16339;48.748;2.222;2022-09-09T05:02:42;15.15;;;2.58;;
29344;SDS011;16339;48.748;2.222;2022-09-09T05:05:11;17.38;;;2.70;;
29344;SDS011;16339;48.748;2.222;2022-09-09T05:07:40;15.02;;;3.00;;
29344;SDS011;16339;48.748;2.222;2022-09-09T05:10:08;17.83;;;2.67;;
29344;SDS011;16339;48.748;2.222;2022-09-09T05:12:39;12.75;;;2.67;;
29344;SDS011;16339;48.748;2.222;2022-09-09T05:15:10;18.15;;;2.78;;
29344;SDS011;16339;48.748;2.222;2022-09-09T05:17:39;17.38;;;2.90;;
29344;SDS011;16339;48.748;2.222;2022-09-09T05:20:08;22.33;;;3.20;;
29344;SDS011;16339;48.748;2.222;2022-09-09T05:22:37;15.63;;;2.63;;
29344;SDS011;16339;48.748;2.222;2022-09-09T05:25:06;11.98;;;2.75;;
29344;SDS011;16339;48.748;2.222;2022-09-09T05:27:35;19.85;;;2.60;;
29344;SDS011;16339;48.748;2.222;2022-09-09T05:30:05;19.05;;;3.15;;
29344;SDS011;16339;48.748;2.222;2022-09-09T05:32:37;23.67;;;3.22;;
29344;SDS011;16339;48.748;2.222;2022-09-09T05:37:35;16.08;;;2.85;;
29344;SDS011;16339;48.748;2.222;2022-09-09T05:40:05;21.08;;;3.28;;
29344;SDS011;16339;48.748;2.222;2022-09-09T05:42:34;19.50;;;3.38;;
29344;SDS011;16339;48.748;2.222;2022-09-09T05:45:04;17.33;;;3.30;;
29344;SDS011;16339;48.748;2.222;2022-09-09T05:47:36;17.58;;;2.95;;
29344;SDS011;16339;48.748;2.222;2022-09-09T05:50:05;24.15;;;3.17;;
29344;SDS011;16339;48.748;2.222;2022-09-09T05:52:35;11.80;;;2.50;;
29344;SDS011;16339;48.748;2.222;2022-09-09T05:55:04;18.85;;;2.97;;
29344;SDS011;16339;48.748;2.222;2022-09-09T05:57:34;18.85;;;3.20;;
29344;SDS011;16339;48.748;2.222;2022-09-09T06:00:04;22.27;;;3.22;;
29344;SDS011;16339;48.748;2.222;2022-09-09T06:02:37;16.98;;;3.05;;
29344;SDS011;16339;48.748;2.222;2022-09-09T06:05:06;20.45;;;2.83;;
29344;SDS011;16339;48.748;2.222;2022-09-09T06:07:36;14.45;;;2.88;;
29344;SDS011;16339;48.748;2.222;2022-09-09T06:10:07;16.88;;;2.70;;
29344;SDS011;16339;48.748;2.222;2022-09-09T06:12:38;21.35;;;3.08;;
29344;SDS011;16339;48.748;2.222;2022-09-09T06:15:08;19.45;;;3.17;;
29344;SDS011;16339;48.748;2.222;2022-09-09T06:17:40;20.35;;;2.90;;
29344;SDS011;16339;48.748;2.222;2022-09-09T06:20:10;17.05;;;2.92;;
29344;SDS011;16339;48.748;2.222;2022-09-09T06:22:39;21.35;;;2.63;;
29344;SDS011;16339;48.748;2.222;2022-09-09T06:25:11;17.48;;;2.97;;
29344;SDS011;16339;48.748;2.222;2022-09-09T06:27:40;18.77;;;3.00;;
29344;SDS011;16339;48.748;2.222;2022-09-09T06:30:10;16.67;;;2.92;;
29344;SDS011;16339;48.748;2.222;2022-09-09T06:32:42;18.83;;;3.03;;
29344;SDS011;16339;48.748;2.222;2022-09-09T06:35:10;23.08;;;3.20;;
29344;SDS011;16339;48.748;2.222;2022-09-09T06:37:39;14.40;;;2.50;;
29344;SDS011;16339;48.748;2.222;2022-09-09T06:40:13;19.52;;;3.03;;
29344;SDS011;16339;48.748;2.222;2022-09-09T06:42:42;17.05;;;2.40;;
29344;SDS011;16339;48.748;2.222;2022-09-09T06:45:11;17.83;;;2.88;;
29344;SDS011;16339;48.748;2.222;2022-09-09T06:47:42;20.52;;;2.65;;
29344;SDS011;16339;48.748;2.222;2022-09-09T06:50:11;18.15;;;2.53;;
29344;SDS011;16339;48.748;2.222;2022-09-09T06:52:41;19.42;;;2.60;;
29344;SDS011;16339;48.748;2.222;2022-09-09T06:55:10;13.27;;;2.55;;
29344;SDS011;16339;48.748;2.222;2022-09-09T06:57:40;14.20;;;2.43;;
29344;SDS011;16339;48.748;2.222;2022-09-09T07:00:10;11.70;;;2.67;;
29344;SDS011;16339;48.748;2.222;2022-09-09T07:02:40;24.17;;;3.03;;
29344;SDS011;16339;48.748;2.222;2022-09-09T07:05:11;18.00;;;2.90;;
29344;SDS011;16339;48.748;2.222;2022-09-09T07:07:40;11.98;;;2.83;;
29344;SDS011;16339;48.748;2.222;2022-09-09T07:10:09;10.02;;;2.40;;
29344;SDS011;16339;48.748;2.222;2022-09-09T07:12:38;11.85;;;2.05;;
29344;SDS011;16339;48.748;2.222;2022-09-09T07:15:07;14.20;;;2.10;;
29344;SDS011;16339;48.748;2.222;2022-09-09T07:17:38;12.20;;;2.55;;
29344;SDS011;16339;48.748;2.222;2022-09-09T07:20:09;10.93;;;2.40;;
29344;SDS011;16339;48.748;2.222;2022-09-09T07:22:38;20.90;;;2.78;;
29344;SDS011;16339;48.748;2.222;2022-09-09T07:25:10;11.10;;;2.00;;
29344;SDS011;16339;48.748;2.222;2022-09-09T07:27:39;10.43;;;2.20;;
29344;SDS011;16339;48.748;2.222;2022-09-09T07:30:08;9.65;;;2.28;;
29344;SDS011;16339;48.748;2.222;2022-09-09T07:32:38;9.73;;;1.67;;
29344;SDS011;16339;48.748;2.222;2022-09-09T07:35:09;12.90;;;2.30;;
29344;SDS011;16339;48.748;2.222;2022-09-09T07:40:07;12.80;;;2.00;;
29344;SDS011;16339;48.748;2.222;2022-09-09T07:42:36;14.93;;;1.98;;
29344;SDS011;16339;48.748;2.222;2022-09-09T07:45:05;15.27;;;2.28;;
29344;SDS011;16339;48.748;2.222;2022-09-09T07:47:34;10.38;;;2.05;;
29344;SDS011;16339;48.748;2.222;2022-09-09T07:50:03;20.02;;;2.92;;
29344;SDS011;16339;48.748;2.222;2022-09-09T07:52:36;15.80;;;2.70;;
29344;SDS011;16339;48.748;2.222;2022-09-09T07:55:05;14.43;;;2.17;;
29344;SDS011;16339;48.748;2.222;2022-09-09T07:57:34;11.25;;;2.22;;
29344;SDS011;16339;48.748;2.222;2022-09-09T08:00:04;18.17;;;2.20;;
29344;SDS011;16339;48.748;2.222;2022-09-09T08:02:35;15.07;;;2.42;;
29344;SDS011;16339;48.748;2.222;2022-09-09T08:05:04;15.85;;;2.05;;
29344;SDS011;16339;48.748;2.222;2022-09-09T08:07:36;21.55;;;2.38;;
29344;SDS011;16339;48.748;2.222;2022-09-09T08:12:34;11.10;;;1.95;;
29344;SDS011;16339;48.748;2.222;2022-09-09T08:15:03;8.90;;;1.80;;
29344;SDS011;16339;48.748;2.222;2022-09-09T08:17:32;15.82;;;1.98;;
29344;SDS011;16339;48.748;2.222;2022-09-09T08:20:03;13.73;;;2.22;;
29344;SDS011;16339;48.748;2.222;2022-09-09T08:22:32;16.15;;;2.33;;
29344;SDS011;16339;48.748;2.222;2022-09-09T08:25:04;14.90;;;1.98;;
29344;SDS011;16339;48.748;2.222;2022-09-09T08:27:35;6.97;;;1.90;;
29344;SDS011;16339;48.748;2.222;2022-09-09T08:30:04;13.13;;;2.22;;
29344;SDS011;16339;48.748;2.222;2022-09-09T08:32:34;10.77;;;2.25;;
29344;SDS011;16339;48.748;2.222;2022-09-09T08:35:02;11.10;;;2.08;;
29344;SDS011;16339;48.748;2.222;2022-09-09T08:37:31;15.95;;;2.38;;
29344;SDS011;16339;48.748;2.222;2022-09-09T08:40:03;5.65;;;1.63;;
29344;SDS011;16339;48.748;2.222;2022-09-09T08:42:35;8.15;;;1.80;;
29344;SDS011;16339;48.748;2.222;2022-09-09T08:45:14;13.93;;;2.22;;
29344;SDS011;16339;48.748;2.222;2022-09-09T08:48:08;12.65;;;2.40;;
29344;SDS011;16339;48.748;2.222;2022-09-09T08:50:45;13.38;;;1.70;;
29344;SDS011;16339;48.748;2.222;2022-09-09T08:53:17;8.60;;;1.60;;
29344;SDS011;16339;48.748;2.222;2022-09-09T08:55:58;12.43;;;2.13;;
29344;SDS011;16339;48.748;2.222;2022-09-09T08:58:29;9.00;;;1.77;;
29344;SDS011;16339;48.748;2.222;2022-09-09T09:01:02;11.38;;;2.28;;
29344;SDS011;16339;48.748;2.222;2022-09-09T09:03:48;9.18;;;2.22;;
29344;SDS011;16339;48.748;2.222;2022-09-09T09:06:31;12.38;;;2.00;;
29344;SDS011;16339;48.748;2.222;2022-09-09T09:09:10;11.35;;;1.88;;
29344;SDS011;16339;48.748;2.222;2022-09-09T09:11:47;12.20;;;2.38;;
29344;SDS011;16339;48.748;2.222;2022-09-09T09:14:18;12.18;;;2.15;;
29344;SDS011;16339;48.748;2.222;2022-09-09T09:16:52;7.75;;;1.67;;
29344;SDS011;16339;48.748;2.222;2022-09-09T09:19:24;11.10;;;1.75;;
29344;SDS011;16339;48.748;2.222;2022-09-09T09:21:57;10.40;;;2.00;;
29344;SDS011;16339;48.748;2.222;2022-09-09T09:24:34;8.40;;;1.38;;
29344;SDS011;16339;48.748;2.222;2022-09-09T09:27:14;7.60;;;1.95;;
29344;SDS011;16339;48.748;2.222;2022-09-09T09:29:43;13.50;;;1.90;;
29344;SDS011;16339;48.748;2.222;2022-09-09T09:32:16;11.90;;;1.63;;
29344;SDS011;16339;48.748;2.222;2022-09-09T09:34:48;9.85;;;1.80;;
29344;SDS011;16339;48.748;2.222;2022-09-09T09:37:22;11.73;;;1.88;;
29344;SDS011;16339;48.748;2.222;2022-09-09T09:39:54;7.55;;;1.95;;
29344;SDS011;16339;48.748;2.222;2022-09-09T09:42:26;15.23;;;1.92;;
29344;SDS011;16339;48.748;2.222;2022-09-09T09:44:55;11.05;;;1.55;;
29344;SDS011;16339;48.748;2.222;2022-09-09T09:47:25;11.57;;;1.90;;
29344;SDS011;16339;48.748;2.222;2022-09-09T09:49:54;8.40;;;1.63;;
29344;SDS011;16339;48.748;2.222;2022-09-09T09:52:25;9.40;;;1.75;;
29344;SDS011;16339;48.748;2.222;2022-09-09T09:54:55;8.00;;;1.85;;
29344;SDS011;16339;48.748;2.222;2022-09-09T09:57:29;8.70;;;1.50;;
29344;SDS011;16339;48.748;2.222;2022-09-09T10:00:04;8.98;;;1.80;;
29344;SDS011;16339;48.748;2.222;2022-09-09T10:02:42;8.93;;;1.58;;
29344;SDS011;16339;48.748;2.222;2022-09-09T10:05:14;14.40;;;2.40;;
29344;SDS011;16339;48.748;2.222;2022-09-09T10:07:45;7.55;;;1.80;;
29344;SDS011;16339;48.748;2.222;2022-09-09T10:10:15;10.23;;;2.15;;
29344;SDS011;16339;48.748;2.222;2022-09-09T10:12:56;9.77;;;1.73;;
29344;SDS011;16339;48.748;2.222;2022-09-09T10:15:33;9.33;;;2.07;;
29344;SDS011;16339;48.748;2.222;2022-09-09T10:18:19;3.53;;;1.55;;
29344;SDS011;16339;48.748;2.222;2022-09-09T10:21:03;6.05;;;1.63;;
29344;SDS011;16339;48.748;2.222;2022-09-09T10:23:49;8.75;;;1.88;;
29344;SDS011;16339;48.748;2.222;2022-09-09T10:26:40;14.02;;;2.20;;
29344;SDS011;16339;48.748;2.222;2022-09-09T10:29:22;9.63;;;1.80;;
29344;SDS011;16339;48.748;2.222;2022-09-09T10:32:06;11.13;;;1.80;;
29344;SDS011;16339;48.748;2.222;2022-09-09T10:34:55;11.25;;;1.75;;
29344;SDS011;16339;48.748;2.222;2022-09-09T10:37:30;11.15;;;1.85;;
29344;SDS011;16339;48.748;2.222;2022-09-09T10:40:21;7.68;;;1.55;;
29344;SDS011;16339;48.748;2.222;2022-09-09T10:42:59;5.53;;;1.45;;
29344;SDS011;16339;48.748;2.222;2022-09-09T10:45:49;8.02;;;1.85;;
29344;SDS011;16339;48.748;2.222;2022-09-09T10:48:31;18.00;;;1.77;;
29344;SDS011;16339;48.748;2.222;2022-09-09T10:51:13;8.63;;;1.58;;
29344;SDS011;16339;48.748;2.222;2022-09-09T10:53:53;7.43;;;1.48;;
29344;SDS011;16339;48.748;2.222;2022-09-09T10:56:38;6.75;;;1.65;;
29344;SDS011;16339;48.748;2.222;2022-09-09T10:59:12;14.65;;;1.77;;
29344;SDS011;16339;48.748;2.222;2022-09-09T11:01:48;14.48;;;1.65;;
29344;SDS011;16339;48.748;2.222;2022-09-09T11:04:21;7.20;;;1.67;;
29344;SDS011;16339;48.748;2.222;2022-09-09T11:06:53;9.15;;;1.73;;
29344;SDS011;16339;48.748;2.222;2022-09-09T11:09:24;10.85;;;1.70;;
29344;SDS011;16339;48.748;2.222;2022-09-09T11:11:56;8.60;;;2.47;;
29344;SDS011;16339;48.748;2.222;2022-09-09T11:14:31;8.57;;;1.60;;
29344;SDS011;16339;48.748;2.222;2022-09-09T11:17:09;7.55;;;1.67;;
29344;SDS011;16339;48.748;2.222;2022-09-09T11:19:42;6.93;;;1.67;;
29344;SDS011;16339;48.748;2.222;2022-09-09T11:22:15;10.52;;;1.40;;
29344;SDS011;16339;48.748;2.222;2022-09-09T11:24:50;7.60;;;1.52;;
29344;SDS011;16339;48.748;2.222;2022-09-09T11:27:23;11.60;;;1.92;;
29344;SDS011;16339;48.748;2.222;2022-09-09T11:30:02;10.15;;;1.70;;
29344;SDS011;16339;48.748;2.222;2022-09-09T11:32:52;10.73;;;1.20;;
29344;SDS011;16339;48.748;2.222;2022-09-09T11:35:43;9.27;;;1.73;;
29344;SDS011;16339;48.748;2.222;2022-09-09T11:38:19;10.25;;;1.45;;
29344;SDS011;16339;48.748;2.222;2022-09-09T11:40:56;8.80;;;1.30;;
29344;SDS011;16339;48.748;2.222;2022-09-09T11:43:28;7.35;;;1.35;;
29344;SDS011;16339;48.748;2.222;2022-09-09T11:46:00;9.63;;;1.52;;
29344;SDS011;16339;48.748;2.222;2022-09-09T11:48:34;9.48;;;1.27;;
29344;SDS011;16339;48.748;2.222;2022-09-09T11:51:05;6.57;;;1.58;;
29344;SDS011;16339;48.748;2.222;2022-09-09T11:53:47;6.03;;;1.40;;
29344;SDS011;16339;48.748;2.222;2022-09-09T11:56:24;8.68;;;1.42;;
29344;SDS011;16339;48.748;2.222;2022-09-09T11:59:00;7.68;;;1.58;;
29344;SDS011;16339;48.748;2.222;2022-09-09T12:01:34;8.50;;;1.83;;
29344;SDS011;16339;48.748;2.222;2022-09-09T12:04:14;8.20;;;1.35;;
29344;SDS011;16339;48.748;2.222;2022-09-09T12:06:51;13.70;;;1.80;;
29344;SDS011;16339;48.748;2.222;2022-09-09T12:09:24;12.68;;;1.83;;
29344;SDS011;16339;48.748;2.222;2022-09-09T12:14:55;7.45;;;1.45;;
29344;SDS011;16339;48.748;2.222;2022-09-09T12:17:42;8.45;;;1.70;;
29344;SDS011;16339;48.748;2.222;2022-09-09T12:20:16;7.25;;;1.40;;
29344;SDS011;16339;48.748;2.222;2022-09-09T12:22:51;7.90;;;1.67;;
29344;SDS011;16339;48.748;2.222;2022-09-09T12:25:36;11.32;;;1.85;;
29344;SDS011;16339;48.748;2.222;2022-09-09T12:28:17;10.07;;;1.80;;
29344;SDS011;16339;48.748;2.222;2022-09-09T12:30:49;16.40;;;1.83;;
29344;SDS011;16339;48.748;2.222;2022-09-09T12:33:32;7.20;;;1.65;;
29344;SDS011;16339;48.748;2.222;2022-09-09T12:36:07;20.75;;;2.17;;
29344;SDS011;16339;48.748;2.222;2022-09-09T12:38:40;10.77;;;1.70;;
29344;SDS011;16339;48.748;2.222;2022-09-09T12:41:17;10.87;;;2.23;;
29344;SDS011;16339;48.748;2.222;2022-09-09T12:43:48;12.00;;;2.40;;
29344;SDS011;16339;48.748;2.222;2022-09-09T12:46:20;16.90;;;2.53;;
29344;SDS011;16339;48.748;2.222;2022-09-09T12:48:53;16.77;;;2.05;;
29344;SDS011;16339;48.748;2.222;2022-09-09T12:51:26;12.07;;;2.20;;
29344;SDS011;16339;48.748;2.222;2022-09-09T12:53:56;11.45;;;2.53;;
29344;SDS011;16339;48.748;2.222;2022-09-09T12:56:27;10.10;;;2.83;;
29344;SDS011;16339;48.748;2.222;2022-09-09T12:58:58;11.50;;;2.15;;
29344;SDS011;16339;48.748;2.222;2022-09-09T13:01:28;19.67;;;3.13;;
29344;SDS011;16339;48.748;2.222;2022-09-09T13:03:58;27.27;;;4.45;;
29344;SDS011;16339;48.748;2.222;2022-09-09T13:06:30;17.92;;;3.50;;
29344;SDS011;16339;48.748;2.222;2022-09-09T13:09:01;14.57;;;2.80;;
29344;SDS011;16339;48.748;2.222;2022-09-09T13:11:31;16.98;;;3.65;;
29344;SDS011;16339;48.748;2.222;2022-09-09T13:14:04;17.42;;;3.45;;
29344;SDS011;16339;48.748;2.222;2022-09-09T13:16:34;24.05;;;4.47;;
29344;SDS011;16339;48.748;2.222;2022-09-09T13:19:06;19.80;;;3.75;;
29344;SDS011;16339;48.748;2.222;2022-09-09T13:21:39;36.67;;;4.85;;
29344;SDS011;16339;48.748;2.222;2022-09-09T13:24:21;19.90;;;4.18;;
29344;SDS011;16339;48.748;2.222;2022-09-09T13:26:57;15.73;;;4.25;;
29344;SDS011;16339;48.748;2.222;2022-09-09T13:29:27;19.40;;;4.70;;
29344;SDS011;16339;48.748;2.222;2022-09-09T13:32:03;23.17;;;4.45;;
29344;SDS011;16339;48.748;2.222;2022-09-09T13:42:26;21.25;;;4.55;;
29344;SDS011;16339;48.748;2.222;2022-09-09T13:45:00;14.80;;;3.75;;
29344;SDS011;16339;48.748;2.222;2022-09-09T13:47:31;16.20;;;3.70;;
29344;SDS011;16339;48.748;2.222;2022-09-09T13:50:10;12.43;;;4.13;;
29344;SDS011;16339;48.748;2.222;2022-09-09T13:52:47;18.50;;;5.00;;
29344;SDS011;16339;48.748;2.222;2022-09-09T13:55:16;21.02;;;5.13;;
29344;SDS011;16339;48.748;2.222;2022-09-09T13:57:53;16.77;;;4.55;;
29344;SDS011;16339;48.748;2.222;2022-09-09T14:00:23;23.90;;;4.32;;
29344;SDS011;16339;48.748;2.222;2022-09-09T14:02:53;12.35;;;4.05;;
29344;SDS011;16339;48.748;2.222;2022-09-09T14:05:22;14.95;;;3.25;;
29344;SDS011;16339;48.748;2.222;2022-09-09T14:07:52;14.45;;;3.03;;
29344;SDS011;16339;48.748;2.222;2022-09-09T14:10:21;15.30;;;3.22;;
29344;SDS011;16339;48.748;2.222;2022-09-09T14:12:52;12.40;;;2.45;;
29344;SDS011;16339;48.748;2.222;2022-09-09T14:17:49;15.60;;;3.13;;
29344;SDS011;16339;48.748;2.222;2022-09-09T14:20:18;10.70;;;2.40;;
29344;SDS011;16339;48.748;2.222;2022-09-09T14:22:47;12.35;;;2.95;;
29344;SDS011;16339;48.748;2.222;2022-09-09T14:25:16;8.50;;;2.47;;
29344;SDS011;16339;48.748;2.222;2022-09-09T14:27:44;6.80;;;2.10;;
29344;SDS011;16339;48.748;2.222;2022-09-09T14:30:16;10.40;;;2.30;;
29344;SDS011;16339;48.748;2.222;2022-09-09T14:32:45;6.95;;;1.83;;
29344;SDS011;16339;48.748;2.222;2022-09-09T14:35:14;12.40;;;2.22;;
29344;SDS011;16339;48.748;2.222;2022-09-09T14:37:44;6.85;;;1.73;;
29344;SDS011;16339;48.748;2.222;2022-09-09T14:40:13;9.93;;;2.35;;
29344;SDS011;16339;48.748;2.222;2022-09-09T14:42:42;17.08;;;2.33;;
29344;SDS011;16339;48.748;2.222;2022-09-09T14:45:11;8.38;;;2.00;;
29344;SDS011;16339;48.748;2.222;2022-09-09T14:47:42;13.95;;;2.53;;
29344;SDS011;16339;48.748;2.222;2022-09-09T14:52:40;9.40;;;2.40;;
29344;SDS011;16339;48.748;2.222;2022-09-09T14:55:09;10.63;;;2.30;;
29344;SDS011;16339;48.748;2.222;2022-09-09T14:57:38;6.13;;;1.80;;
29344;SDS011;16339;48.748;2.222;2022-09-09T15:00:07;11.88;;;2.40;;
29344;SDS011;16339;48.748;2.222;2022-09-09T15:02:37;13.52;;;2.00;;
29344;SDS011;16339;48.748;2.222;2022-09-09T15:05:09;8.88;;;1.88;;
29344;SDS011;16339;48.748;2.222;2022-09-09T15:07:37;8.40;;;1.92;;
29344;SDS011;16339;48.748;2.222;2022-09-09T15:10:06;10.55;;;1.90;;
29344;SDS011;16339;48.748;2.222;2022-09-09T15:12:36;8.40;;;1.73;;
29344;SDS011;16339;48.748;2.222;2022-09-09T15:15:05;5.47;;;1.65;;
29344;SDS011;16339;48.748;2.222;2022-09-09T15:17:34;8.93;;;1.42;;
29344;SDS011;16339;48.748;2.222;2022-09-09T15:20:04;6.85;;;1.73;;
29344;SDS011;16339;48.748;2.222;2022-09-09T15:22:36;10.07;;;1.88;;
29344;SDS011;16339;48.748;2.222;2022-09-09T15:25:05;10.07;;;2.10;;
29344;SDS011;16339;48.748;2.222;2022-09-09T15:27:35;10.60;;;1.95;;
29344;SDS011;16339;48.748;2.222;2022-09-09T15:30:06;7.40;;;1.75;;
29344;SDS011;16339;48.748;2.222;2022-09-09T15:32:35;9.73;;;1.90;;
29344;SDS011;16339;48.748;2.222;2022-09-09T15:35:05;9.65;;;1.60;;
29344;SDS011;16339;48.748;2.222;2022-09-09T15:37:37;6.70;;;1.48;;
29344;SDS011;16339;48.748;2.222;2022-09-09T15:42:35;7.35;;;1.80;;
29344;SDS011;16339;48.748;2.222;2022-09-09T15:45:04;9.13;;;1.88;;